Leland, IL (60531)

09:13 PM CDT on Αύγουστος 27, 2016 (GMT -0500)
Farm 34 | | Change Station
Active Advisory: Flood Warning

Elev 699 ft 41.59 °N, 88.85 °W | Updated 5 minutes ago

Clear
Αίθριος
74.7 ° F
Feels Like 73 ° F
N
3.0
Ανεμος Μεταβλητός Ανεμος from Νότιος
Gusts 4.0 mph

Σήμερα
High -- | Low -- ° F
--% Chance of Precip.
Yesterday
High -- | Low -- ° F
Precip. -- in
Ατμοσφαιρική Πίεση 30.06 in
Ορατότητα 10.0 Μίλια
Σύννεφα Αίθριος
Δείκτης Δυσφορίας 73 ° F
Σημείο Δρόσου 73 ° F
Υγρασία 93%
Rainfall 0.67 in
Snow Depth Not available.
6:16 AM 7:35 PM
Μηνίσκος, 19% visible
METAR KARR 280152Z 22004KT 10SM CLR 24/22 A3007 RMK AO2 SLP177 T02440217
Ατμοσφαιρική Πίεση 30.06 in
Ορατότητα 10.0 Μίλια
Σύννεφα Αίθριος
Δείκτης Δυσφορίας 73 ° F
Σημείο Δρόσου 73 ° F
Υγρασία 93%
Rainfall 0.67 in
Snow Depth Not available.
6:16 AM 7:35 PM
Μηνίσκος, 19% visible
METAR KARR 280152Z 22004KT 10SM CLR 24/22 A3007 RMK AO2 SLP177 T02440217

10-Day Weather Forecast

Almanac

Αστρονομία

Aug. 27, 2016 Rise Set
Actual Time
Civil Twilight
Nautical Twilight
Astronomical Twilight
Moon
Length Of Visible Light
Διάρκεια ημέρας
Tomorrow will be .
, % of the Moon is Illuminated

Today's Extremes

State Highs State Lows

Community

WunderPhotos

Upload Photos

1,935,493 photos uploaded!

WunderBlog® & News

Nearby

Air Quality

  Air Quality AQ Index Pollutant
Not available.

Snow Depth

Station Depth Elevation

Earthquake Activity

City Distance Mag. Time & Date
Minimum magnitude displayed is 2.5.

Coastal Water Temperatures

Τοποθεσία Θερμοκρασία

Stations

Nearby Weather Stations

Station Location Temp Δείκτης Ψυχρότητας Σημείο Δρόσου Υγρασία Ανεμος Precip. Elev Ενημερώθηκε Type
                   

Watches & Warnings

Flood Warning
Issued: 2:11 PM CDT Aug. 27, 2016 – National Weather Service

The National Weather Service in Chicago has issued a

* Flood Warning for
the Illinois River at La Salle.
* From Sunday morning to late Wednesday night.
* At 145 PM Saturday the stage was 18.8 feet.
* Flood stage is 20.0 feet.
* Minor flooding is forecast.
* Forecast... rise above flood stage by Sunday morning and continue to
rise to near 22.1 feet by Monday afternoon.The river will fall
below flood stage by Wednesday evening.
* Impact... at 22.0 feet... Riverside parking lot at Starved Rock State
Park floods.


Lat... Lon 4137 8896 4135 8929 4126 8930 4128 8896


Acs


211 PM CDT Sat Aug 27 2016

The National Weather Service in Chicago has issued a

* Flood Warning for
the Illinois River at Ottawa.
* From Sunday afternoon to Monday afternoon.
* At 130 PM Saturday the stage was 460.8 feet.
* Flood stage is 463.0 feet.
* Minor flooding is forecast.
* Forecast... rise above flood stage by Sunday afternoon and continue
to rise to near 463.3 feet by early Monday morning.The river will
fall below flood stage by late Monday morning.
* Impact... at 463.9 feet... water reaches top of Fox River bank at St
Elizabeth medical center in Ottawa.


Lat... Lon 4135 8868 4137 8896 4128 8897 4127 8867